Wilmington, NC (28409)

3:01 PM EDT on September 02, 2015 (GMT -0400)
Monkey Junction | | Change Station
CLOSE
Current Station
Personal Weather Station
Location: Wilmington, NC
Elevation: 33 ft
Nearby Weather Stations

Elev 33 ft 34.15 °N, 77.89 °W | Updated 2 minutes ago

Partly Cloudy
Partly Cloudy
90.3 °F
Feels Like 100 °F
N
1.0
Wind Variable Wind from SE
Gusts 1.0 mph

Today
High -- | Low -- °F
--% Chance of Precip.
Yesterday
High -- | Low -- °F
Precip. -- in
6:45 AM 7:36 PM
Waning Gibbous, 78% visible
Pressure 30.01 in
Visibility 10.0 miles
Clouds Clear
Heat Index 100 °F
Dew Point 74 °F
Humidity 59%
Rainfall 0.00 in
Snow Depth Not available.
UV 8 out of 12
Pollen 8.10 out of 12
Air Quality Not available.
Flu Activity Not available.
METAR KILM 021853Z 00000KT 10SM CLR 34/19 A3001 RMK AO2 SLP162 T03390189
Pressure 30.01 in
Visibility 10.0 miles
Clouds Clear
Heat Index 100 °F
Dew Point 74 °F
Humidity 59%
Rainfall 0.00 in
Snow Depth Not available.
UV 8 out of 12
Pollen 8.10 out of 12
Air Quality Not available.
Flu Activity Not available.
METAR KILM 021853Z 00000KT 10SM CLR 34/19 A3001 RMK AO2 SLP162 T03390189

10-Day Weather Forecast

×

Almanac

Astronomy

Sep. 02, 2015 Rise Set
Actual Time
Civil Twilight
Nautical Twilight
Astronomical Twilight
Moon
Length of Visible Light
Length of Day
Tomorrow will be .
, % of the Moon is Illuminated

Today's Extremes

State Highs State Lows

Community

WunderPhotos

Upload Photos

1,851,799 photos uploaded!

WunderBlogs® & News

Nearby

Air Quality

  Air Quality AQ Index Pollutant
Not available.

Snow Depth

Station Depth Elevation

Earthquake Activity

City Distance Mag. Time & Date
Minimum magnitude displayed is 2.5.

Coastal Water Temperatures

Place Temperature

Stations

Nearby Weather Stations

Station Location Temp. Windchill Dew Point Humidity Wind Precip. Elev Updated Type